Time;durP1;ratioP1;P1;durP2;ratioP2;P2;SDS_P1;SDS_P2;PMS_P1;PMS_P2;Temp;Humidity;BMP_temperature;BMP_pressure;BME280_temperature;BME280_humidity;BME280_pressure;Samples;Min_cycle;Max_cycle;Signal;HPM_P1;HPM_P2
2024/03/17 00:00:03;;;;;;;26.60;15.52;;;;;;;8.58;57.14;95210.28;5125940;27;20126;-85
2024/03/17 00:02:28;;;;;;;21.40;15.30;;;;;;;8.55;57.44;95213.09;5140295;27;20068;-86
2024/03/17 00:04:53;;;;;;;22.38;15.32;;;;;;;8.49;56.98;95210.06;5132624;27;20412;-84
2024/03/17 00:07:19;;;;;;;22.23;13.98;;;;;;;8.45;57.59;95212.06;5125572;27;20055;-85
2024/03/17 00:09:44;;;;;;;21.10;14.55;;;;;;;8.35;57.92;95205.53;5126296;28;20035;-85
2024/03/17 00:12:10;;;;;;;20.40;14.15;;;;;;;8.28;58.09;95210.34;5125588;28;20023;-85
2024/03/17 00:14:37;;;;;;;25.95;14.40;;;;;;;8.27;58.13;95209.59;5126159;28;20019;-85
2024/03/17 00:17:03;;;;;;;21.85;13.68;;;;;;;8.29;57.95;95211.91;5125140;28;20047;-86
2024/03/17 00:19:28;;;;;;;21.73;13.90;;;;;;;8.23;58.24;95215.09;5127399;27;20023;-85
2024/03/17 00:21:54;;;;;;;20.77;13.75;;;;;;;8.21;58.33;95212.03;5125322;27;20086;-85
2024/03/17 00:24:19;;;;;;;20.75;14.32;;;;;;;8.24;58.13;95213.91;5126913;27;20026;-85
2024/03/17 00:26:46;;;;;;;23.52;14.52;;;;;;;8.10;58.27;95205.94;5127003;27;20122;-85
2024/03/17 00:29:11;;;;;;;22.33;14.63;;;;;;;8.10;58.48;95200.44;5125870;28;20019;-85
2024/03/17 00:31:37;;;;;;;20.35;14.15;;;;;;;8.07;58.60;95201.28;5127163;27;20031;-85
2024/03/17 00:34:02;;;;;;;20.00;14.27;;;;;;;8.06;58.37;95202.47;5126868;27;20533;-85
2024/03/17 00:36:28;;;;;;;18.40;13.63;;;;;;;8.07;58.65;95195.78;5108793;28;20114;-85
2024/03/17 00:38:53;;;;;;;24.90;13.95;;;;;;;8.06;58.23;95196.22;5125339;28;20019;-85
2024/03/17 00:41:19;;;;;;;22.15;13.95;;;;;;;8.02;58.66;95207.22;5125620;28;20469;-86
2024/03/17 00:43:45;;;;;;;21.05;13.30;;;;;;;8.01;58.47;95199.41;5125391;27;20019;-85
2024/03/17 00:46:10;;;;;;;24.38;14.68;;;;;;;7.95;58.47;95193.63;5127199;27;20420;-86
2024/03/17 00:48:35;;;;;;;18.42;12.95;;;;;;;8.02;58.49;95198.22;5129092;27;20047;-84
2024/03/17 00:51:01;;;;;;;23.00;13.85;;;;;;;7.97;58.55;95204.94;5129300;27;20019;-85
2024/03/17 00:53:28;;;;;;;22.52;13.77;;;;;;;7.95;58.95;95197.13;5129684;27;20110;-84
2024/03/17 00:56:00;;;;;;;19.15;13.95;;;;;;;7.95;59.02;95204.56;5128750;27;20522;-85
2024/03/17 00:58:26;;;;;;;20.35;13.82;;;;;;;7.98;58.66;95204.53;5131099;27;20051;-85
2024/03/17 01:00:51;;;;;;;19.05;13.55;;;;;;;7.97;58.61;95202.19;5129972;27;20143;-85
2024/03/17 01:03:17;;;;;;;21.52;14.13;;;;;;;7.92;59.08;95206.19;5128843;27;20015;-86
2024/03/17 01:05:44;;;;;;;24.63;15.40;;;;;;;7.94;58.92;95206.53;5128954;27;20586;-85
2024/03/17 01:08:10;;;;;;;23.05;15.48;;;;;;;7.91;58.89;95199.16;5130018;27;20392;-85
2024/03/17 01:10:39;;;;;;;22.90;14.75;;;;;;;7.81;58.83;95199.31;5142081;27;20019;-83
2024/03/17 01:13:07;;;;;;;21.75;14.75;;;;;;;7.75;58.91;95200.97;5121714;27;20424;-85
2024/03/17 01:15:32;;;;;;;20.50;14.18;;;;;;;7.84;59.27;95203.94;5114478;27;20043;-85
2024/03/17 01:17:58;;;;;;;21.20;14.27;;;;;;;7.79;59.55;95207.16;5131872;27;20035;-84
2024/03/17 01:20:23;;;;;;;24.90;14.60;;;;;;;7.76;59.41;95202.50;5133393;27;20403;-85
2024/03/17 01:22:49;;;;;;;23.65;14.30;;;;;;;7.75;58.95;95215.44;5130345;27;20424;-84
2024/03/17 01:25:15;;;;;;;21.35;14.00;;;;;;;7.72;59.37;95210.75;5130429;27;20027;-85
2024/03/17 01:27:41;;;;;;;21.77;14.45;;;;;;;7.68;59.28;95207.28;5133866;27;20023;-83
2024/03/17 01:30:07;;;;;;;22.15;14.52;;;;;;;7.60;59.49;95198.41;5131578;27;20577;-85
2024/03/17 01:32:33;;;;;;;22.48;14.18;;;;;;;7.55;59.53;95195.34;5132448;27;20100;-85
2024/03/17 01:34:58;;;;;;;21.10;14.48;;;;;;;7.59;59.48;95201.56;5128613;27;20027;-85
2024/03/17 01:37:24;;;;;;;21.52;15.13;;;;;;;7.62;59.64;95201.50;5111594;27;20123;-85
2024/03/17 01:39:49;;;;;;;20.10;14.18;;;;;;;7.59;59.38;95199.59;5128761;27;20495;-86
2024/03/17 01:42:15;;;;;;;19.73;13.80;;;;;;;7.60;59.64;95206.63;5132082;27;20020;-86
2024/03/17 01:44:40;;;;;;;19.60;13.55;;;;;;;7.54;59.70;95197.31;5134570;27;20027;-85
2024/03/17 01:47:08;;;;;;;22.02;14.18;;;;;;;7.53;59.80;95209.44;5135636;27;20027;-86
2024/03/17 01:49:34;;;;;;;22.83;15.05;;;;;;;7.52;59.84;95201.66;5117371;27;20036;-85
2024/03/17 01:52:00;;;;;;;22.85;14.82;;;;;;;7.43;59.70;95194.72;5134036;27;20121;-85
2024/03/17 01:54:25;;;;;;;23.40;14.48;;;;;;;7.47;59.76;95199.38;5133482;27;20011;-87
2024/03/17 01:56:51;;;;;;;22.27;14.38;;;;;;;7.37;59.58;95190.13;5131649;27;20027;-86
2024/03/17 01:59:16;;;;;;;20.38;14.02;;;;;;;7.48;59.96;95200.94;5114681;27;20027;-86
2024/03/17 02:01:41;;;;;;;20.67;14.02;;;;;;;7.35;59.93;95201.47;5131509;27;20031;-86
2024/03/17 02:04:07;;;;;;;22.23;15.18;;;;;;;7.38;60.12;95199.84;5130636;27;20510;-85
2024/03/17 02:06:32;;;;;;;23.63;15.30;;;;;;;7.29;60.13;95205.06;5113356;27;20501;-86
2024/03/17 02:08:58;;;;;;;24.23;14.90;;;;;;;7.29;60.52;95192.16;5131012;27;20429;-86
2024/03/17 02:11:30;;;;;;;22.83;16.30;;;;;;;7.25;60.72;95204.31;5133364;27;20544;-86
2024/03/17 02:13:56;;;;;;;21.02;14.60;;;;;;;7.22;60.69;95200.44;5135887;27;20023;-85
2024/03/17 02:16:25;;;;;;;21.40;14.05;;;;;;;7.24;60.65;95203.56;5114913;27;20081;-86
2024/03/17 02:18:57;;;;;;;20.70;14.68;;;;;;;7.16;61.10;95205.56;5143321;27;20019;-84
2024/03/17 02:21:24;;;;;;;22.05;15.25;;;;;;;7.24;60.84;95203.56;5120280;27;20122;-85
2024/03/17 02:23:53;;;;;;;21.58;13.32;;;;;;;7.17;60.64;95198.94;5128976;27;20033;-85
2024/03/17 02:26:19;;;;;;;21.45;14.20;;;;;;;7.27;60.68;95207.41;5127591;27;20535;-86
2024/03/17 02:28:46;;;;;;;20.52;14.25;;;;;;;7.26;60.50;95198.44;5112099;27;20055;-86
2024/03/17 02:31:13;;;;;;;20.08;14.13;;;;;;;7.25;60.48;95201.59;5127382;27;20569;-85
2024/03/17 02:33:38;;;;;;;25.08;14.52;;;;;;;7.30;60.35;95207.38;5128919;27;20481;-85
2024/03/17 02:36:07;;;;;;;25.33;15.10;;;;;;;7.29;59.91;95202.34;5127729;27;20022;-86
2024/03/17 02:41:20;;;;;;;23.15;14.77;;;;;;;7.26;59.88;95198.44;5128342;27;20061;-86
2024/03/17 02:43:46;;;;;;;20.50;14.25;;;;;;;7.22;59.83;95191.47;5127142;27;20368;-87
2024/03/17 02:46:13;;;;;;;21.00;14.20;;;;;;;7.21;60.09;95195.38;5127259;27;20163;-87
2024/03/17 02:48:44;;;;;;;19.75;13.35;;;;;;;7.19;60.24;95190.31;5126751;27;20023;-86
2024/03/17 02:51:11;;;;;;;24.58;14.65;;;;;;;7.21;60.14;95187.19;5128527;27;20519;-86
2024/03/17 02:53:37;;;;;;;20.13;13.90;;;;;;;7.16;60.32;95186.44;5127379;27;20023;-85
2024/03/17 02:56:02;;;;;;;23.02;14.27;;;;;;;7.11;60.62;95186.91;5128214;27;20034;-86
2024/03/17 02:58:27;;;;;;;23.02;14.23;;;;;;;7.10;60.37;95187.28;5128520;27;20110;-86
2024/03/17 03:00:53;;;;;;;20.00;13.90;;;;;;;7.17;60.04;95192.72;5109666;27;20023;-85
2024/03/17 03:03:19;;;;;;;23.00;14.50;;;;;;;7.13;60.10;95186.50;5128342;27;20445;-86
2024/03/17 03:05:45;;;;;;;22.65;14.52;;;;;;;7.07;60.49;95188.13;5127171;27;20079;-85
2024/03/17 03:08:11;;;;;;;22.92;15.32;;;;;;;7.05;60.75;95188.50;5126649;27;20027;-85
2024/03/17 03:10:36;;;;;;;25.85;16.15;;;;;;;7.06;60.62;95189.31;5127311;27;20021;-85
2024/03/17 03:13:02;;;;;;;28.10;16.40;;;;;;;7.05;60.75;95183.03;5128256;27;20032;-85
2024/03/17 03:15:30;;;;;;;23.20;15.15;;;;;;;7.01;60.76;95187.03;5126027;27;20129;-86
2024/03/17 03:17:55;;;;;;;23.70;16.02;;;;;;;6.96;60.85;95182.00;5109436;27;20075;-86
2024/03/17 03:20:21;;;;;;;25.63;15.82;;;;;;;7.00;60.87;95185.47;5126413;27;20023;-86
2024/03/17 03:22:47;;;;;;;23.40;15.02;;;;;;;6.99;60.90;95197.56;5125818;27;20027;-86
2024/03/17 03:25:12;;;;;;;22.25;14.73;;;;;;;6.97;60.64;95178.09;5109514;27;20417;-86
2024/03/17 03:27:39;;;;;;;24.73;16.17;;;;;;;6.96;60.70;95180.03;5147633;27;20023;-83
2024/03/17 03:30:06;;;;;;;22.70;15.27;;;;;;;7.01;60.38;95190.53;5110267;27;20019;-84
2024/03/17 03:32:32;;;;;;;26.42;16.17;;;;;;;7.01;60.61;95184.28;5127796;27;20023;-85
2024/03/17 03:34:57;;;;;;;26.48;15.07;;;;;;;6.99;60.73;95190.16;5127484;27;20079;-85
2024/03/17 03:37:23;;;;;;;27.13;16.80;;;;;;;6.97;60.69;95184.31;5109117;27;20031;-85
2024/03/17 03:39:49;;;;;;;24.23;15.63;;;;;;;6.90;60.62;95181.66;5108413;27;20035;-85
2024/03/17 03:42:14;;;;;;;23.65;16.25;;;;;;;6.98;60.60;95194.06;5126206;27;20565;-86
2024/03/17 03:44:39;;;;;;;26.60;16.13;;;;;;;7.02;60.27;95194.81;5108591;27;20027;-85
2024/03/17 03:47:05;;;;;;;28.60;16.58;;;;;;;6.98;60.50;95194.06;5127832;27;20055;-85
2024/03/17 03:49:30;;;;;;;22.42;15.90;;;;;;;6.89;60.65;95191.06;5125541;27;20453;-85
2024/03/17 03:51:55;;;;;;;20.48;14.13;;;;;;;6.83;60.46;95198.94;5126188;27;20106;-83
2024/03/17 03:54:21;;;;;;;22.35;16.33;;;;;;;6.88;60.52;95214.09;5127169;27;20111;-84
2024/03/17 03:56:46;;;;;;;22.40;15.23;;;;;;;6.83;60.46;95209.84;5108514;27;20469;-84
2024/03/17 03:59:12;;;;;;;23.83;15.07;;;;;;;6.77;60.52;95211.47;5127524;27;20025;-86
2024/03/17 04:01:37;;;;;;;24.67;15.95;;;;;;;6.71;60.60;95218.56;5126750;27;20402;-83
2024/03/17 04:04:03;;;;;;;25.60;15.80;;;;;;;6.63;60.56;95206.91;5127027;27;20023;-86
2024/03/17 04:06:28;;;;;;;30.25;16.67;;;;;;;6.68;60.48;95213.91;5124953;27;20026;-84
2024/03/17 04:08:54;;;;;;;27.98;17.92;;;;;;;6.65;60.47;95214.69;5127895;27;20059;-84
2024/03/17 04:11:19;;;;;;;26.50;17.13;;;;;;;6.63;60.13;95217.84;5126976;27;20481;-85
2024/03/17 04:13:45;;;;;;;26.38;16.08;;;;;;;6.62;59.96;95223.72;5126926;27;20049;-83
2024/03/17 04:16:10;;;;;;;29.20;16.20;;;;;;;6.62;60.04;95224.47;5126736;27;20519;-84
2024/03/17 04:18:37;;;;;;;23.80;15.43;;;;;;;6.63;60.05;95225.25;5125093;28;20012;-83
2024/03/17 04:21:04;;;;;;;24.63;16.63;;;;;;;6.61;60.08;95236.59;5125630;28;20171;-86
2024/03/17 04:23:32;;;;;;;27.15;16.13;;;;;;;6.64;60.12;95238.50;5128781;27;20102;-84
2024/03/17 04:25:57;;;;;;;24.52;16.42;;;;;;;6.59;60.00;95238.16;5113024;27;20093;-84
2024/03/17 04:28:23;;;;;;;25.48;17.05;;;;;;;6.58;59.96;95236.63;5130452;27;20038;-84
2024/03/17 04:30:49;;;;;;;24.33;15.70;;;;;;;6.51;59.63;95232.00;5130613;27;20503;-86
2024/03/17 04:33:14;;;;;;;28.40;15.18;;;;;;;6.49;59.93;95237.09;5135543;27;20071;-85
2024/03/17 04:35:41;;;;;;;26.65;16.13;;;;;;;6.56;59.54;95244.44;5147598;27;20038;-85
2024/03/17 04:38:06;;;;;;;26.63;15.77;;;;;;;6.51;59.92;95240.19;5131690;27;20019;-85
2024/03/17 04:40:41;;;;;;;24.52;15.85;;;;;;;6.53;59.97;95245.25;5128948;27;20023;-85
2024/03/17 04:43:07;;;;;;;23.30;15.00;;;;;;;6.51;60.17;95244.88;5130006;27;20023;-85
2024/03/17 04:45:33;;;;;;;22.33;14.75;;;;;;;6.49;60.48;95252.72;5111908;27;20038;-85
2024/03/17 04:47:58;;;;;;;24.13;15.15;;;;;;;6.37;60.28;95230.16;5130892;27;20046;-85
2024/03/17 04:50:24;;;;;;;22.45;15.02;;;;;;;6.54;59.94;95263.97;5129145;27;20390;-84
2024/03/17 04:52:49;;;;;;;24.17;15.50;;;;;;;6.56;59.66;95261.59;5128853;27;20031;-85
2024/03/17 04:55:16;;;;;;;22.83;14.73;;;;;;;6.56;60.00;95266.31;5129305;27;20106;-86
2024/03/17 04:57:43;;;;;;;26.38;16.02;;;;;;;6.54;59.98;95268.66;5128775;27;20503;-85
2024/03/17 05:00:11;;;;;;;21.63;14.40;;;;;;;6.56;60.13;95269.81;5112200;27;20365;-84
2024/03/17 05:02:37;;;;;;;22.02;14.50;;;;;;;6.59;59.94;95277.19;5130625;27;20042;-85
2024/03/17 05:05:04;;;;;;;26.50;15.40;;;;;;;6.58;60.06;95281.09;5129426;27;20395;-85
2024/03/17 05:07:30;;;;;;;25.30;15.57;;;;;;;6.64;60.01;95279.47;5130701;27;20507;-85
2024/03/17 05:09:55;;;;;;;23.50;14.68;;;;;;;6.54;60.11;95271.41;5131135;27;20063;-84
2024/03/17 05:12:20;;;;;;;24.23;15.93;;;;;;;6.68;60.12;95284.94;5129167;27;20023;-85
2024/03/17 05:14:46;;;;;;;24.55;15.20;;;;;;;6.71;60.15;95286.06;5128448;27;20057;-86
2024/03/17 05:17:11;;;;;;;27.60;15.80;;;;;;;6.77;60.04;95289.94;5128778;27;20062;-86
2024/03/17 05:19:37;;;;;;;23.40;15.25;;;;;;;6.82;60.28;95294.94;5129449;27;20027;-85
2024/03/17 05:22:02;;;;;;;22.77;14.52;;;;;;;6.81;60.25;95293.41;5131189;27;20019;-86
2024/03/17 05:24:28;;;;;;;24.27;15.23;;;;;;;6.83;60.19;95280.13;5111112;27;20393;-86
2024/03/17 05:26:53;;;;;;;22.83;15.68;;;;;;;6.92;59.98;95294.88;5130020;27;20091;-86
2024/03/17 05:29:18;;;;;;;25.13;15.38;;;;;;;6.97;59.71;95290.16;5111637;27;20107;-86
2024/03/17 05:31:44;;;;;;;26.63;14.98;;;;;;;7.01;60.16;95296.38;5128316;27;20092;-85
2024/03/17 05:34:10;;;;;;;23.98;14.57;;;;;;;7.03;59.96;95294.75;5127842;27;20023;-86
2024/03/17 05:36:36;;;;;;;25.83;15.18;;;;;;;7.09;60.02;95297.84;5128949;27;20046;-85
2024/03/17 05:39:02;;;;;;;26.73;16.15;;;;;;;7.09;60.14;95303.31;5130204;27;20461;-86
2024/03/17 05:41:28;;;;;;;24.20;15.73;;;;;;;7.14;59.69;95306.38;5146560;27;20031;-86
2024/03/17 05:43:54;;;;;;;23.83;16.02;;;;;;;7.17;59.68;95296.59;5133978;27;20027;-85
2024/03/17 05:46:19;;;;;;;25.20;15.98;;;;;;;7.25;59.94;95306.28;5128107;27;20031;-86
2024/03/17 05:48:45;;;;;;;23.35;15.38;;;;;;;7.26;59.98;95299.63;5129519;27;20030;-85
2024/03/17 05:51:11;;;;;;;22.65;15.77;;;;;;;7.38;59.62;95304.56;5129376;27;20023;-85
2024/03/17 05:53:39;;;;;;;27.08;16.75;;;;;;;7.42;59.31;95307.28;5127719;27;20030;-85
2024/03/17 05:56:07;;;;;;;26.75;15.63;;;;;;;7.38;59.12;95287.38;5130223;27;20023;-86
2024/03/17 05:58:34;;;;;;;23.85;15.45;;;;;;;7.56;59.16;95296.16;5127769;27;20204;-85
2024/03/17 06:01:02;;;;;;;26.85;15.95;;;;;;;7.63;59.03;95298.84;5111305;27;20016;-85
2024/03/17 06:03:27;;;;;;;27.80;15.93;;;;;;;7.66;59.27;95300.75;5127704;27;20388;-86
2024/03/17 06:05:53;;;;;;;25.60;15.93;;;;;;;7.68;59.11;95303.88;5129355;27;20031;-84
2024/03/17 06:08:19;;;;;;;30.55;16.80;;;;;;;7.77;59.34;95308.06;5129173;27;20026;-85
2024/03/17 06:10:46;;;;;;;25.52;16.80;;;;;;;7.83;59.43;95309.16;5127148;27;20027;-85
2024/03/17 06:13:13;;;;;;;24.70;16.15;;;;;;;7.89;59.18;95307.50;5127715;27;20435;-85
2024/03/17 06:15:39;;;;;;;32.40;18.88;;;;;;;7.99;59.02;95309.34;5126755;27;20483;-84
2024/03/17 06:18:04;;;;;;;40.08;21.95;;;;;;;8.03;59.23;95315.56;5127831;27;20031;-84
2024/03/17 06:20:30;;;;;;;35.67;22.20;;;;;;;8.09;58.85;95313.91;5127495;27;20370;-85
2024/03/17 06:22:56;;;;;;;35.33;23.30;;;;;;;8.15;59.26;95314.22;5127897;27;20023;-86
2024/03/17 06:25:25;;;;;;;42.20;25.52;;;;;;;8.08;59.06;95297.88;5127724;27;20050;-85
2024/03/17 06:27:51;;;;;;;46.10;27.08;;;;;;;8.30;58.89;95321.03;5128827;27;20480;-84
2024/03/17 06:30:16;;;;;;;34.85;22.92;;;;;;;8.28;58.73;95322.66;5128239;27;20019;-87
2024/03/17 06:32:45;;;;;;;33.83;22.60;;;;;;;8.38;58.42;95327.25;5127589;27;20556;-85
2024/03/17 06:35:11;;;;;;;34.92;20.83;;;;;;;8.44;58.19;95328.34;5129386;27;20044;-85
2024/03/17 06:37:36;;;;;;;28.23;19.73;;;;;;;8.43;57.94;95324.03;5127070;27;20043;-83
2024/03/17 06:40:03;;;;;;;26.38;17.77;;;;;;;8.54;57.68;95329.34;5128083;27;20692;-86
2024/03/17 06:42:29;;;;;;;24.58;17.42;;;;;;;8.62;57.57;95333.56;5128900;27;20070;-85
2024/03/17 06:44:55;;;;;;;20.95;15.75;;;;;;;8.66;57.30;95326.03;5128133;27;20259;-87
2024/03/17 06:47:20;;;;;;;24.38;14.80;;;;;;;8.67;57.12;95328.38;5129098;27;20389;-86
2024/03/17 06:49:45;;;;;;;24.20;16.13;;;;;;;8.68;57.11;95329.94;5145696;27;20034;-85
2024/03/17 06:52:11;;;;;;;22.13;15.65;;;;;;;8.71;57.10;95331.81;5135164;27;20482;-85
2024/03/17 06:54:36;;;;;;;23.75;15.05;;;;;;;8.78;56.99;95326.25;5129038;27;20096;-83
2024/03/17 06:57:02;;;;;;;22.92;15.48;;;;;;;8.87;56.96;95333.94;5110657;27;20033;-87
2024/03/17 06:59:27;;;;;;;23.48;15.48;;;;;;;8.95;56.60;95329.13;5127341;27;20023;-86
2024/03/17 07:01:52;;;;;;;23.27;15.82;;;;;;;9.03;56.17;95338.78;5109689;27;20027;-85
2024/03/17 07:04:18;;;;;;;24.48;15.70;;;;;;;9.15;56.00;95332.69;5128443;27;20030;-87
2024/03/17 07:06:43;;;;;;;21.08;14.70;;;;;;;9.13;56.05;95324.13;5108656;27;20023;-86
2024/03/17 07:09:09;;;;;;;26.05;14.88;;;;;;;9.39;55.79;95340.91;5127222;27;20057;-86
2024/03/17 07:11:35;;;;;;;23.77;15.00;;;;;;;9.43;55.79;95333.41;5109234;27;20104;-86
2024/03/17 07:14:00;;;;;;;22.98;14.82;;;;;;;9.56;55.43;95337.84;5126901;27;20062;-86
2024/03/17 07:16:26;;;;;;;25.02;14.48;;;;;;;9.60;55.34;95337.78;5126071;27;20039;-86
2024/03/17 07:18:56;;;;;;;23.52;13.63;;;;;;;9.67;55.10;95345.09;5126961;27;20031;-86
2024/03/17 07:21:21;;;;;;;23.25;14.35;;;;;;;9.67;54.71;95328.63;5126643;27;20481;-87
2024/03/17 07:23:47;;;;;;;19.73;13.75;;;;;;;9.88;54.29;95343.94;5109037;27;20061;-86
2024/03/17 07:26:14;;;;;;;20.27;12.88;;;;;;;9.99;53.92;95344.50;5126649;27;20510;-86
2024/03/17 07:28:40;;;;;;;21.40;13.63;;;;;;;10.09;53.74;95333.31;5126003;27;20027;-86
2024/03/17 07:31:08;;;;;;;21.02;14.10;;;;;;;10.24;53.64;95344.78;5127384;27;20038;-86
2024/03/17 07:33:33;;;;;;;22.40;14.60;;;;;;;10.28;53.27;95340.00;5126483;27;20046;-86
2024/03/17 07:36:02;;;;;;;20.73;13.45;;;;;;;10.38;53.26;95343.72;5126965;27;20433;-86
2024/03/17 07:38:29;;;;;;;21.95;11.85;;;;;;;10.52;52.75;95342.63;5126430;27;20027;-86
2024/03/17 07:41:06;;;;;;;18.67;11.25;;;;;;;10.57;52.63;95347.63;5127229;27;20023;-87
2024/03/17 07:43:33;;;;;;;20.40;12.93;;;;;;;10.65;52.76;95349.00;5128754;27;20035;-86
2024/03/17 07:46:06;;;;;;;21.15;12.95;;;;;;;10.64;52.51;95344.72;5128968;27;20050;-86
2024/03/17 07:48:36;;;;;;;20.55;12.93;;;;;;;10.70;52.57;95355.97;5127881;27;20488;-85
2024/03/17 07:51:06;;;;;;;19.45;12.35;;;;;;;10.71;52.49;95352.00;5126373;27;20027;-86
2024/03/17 07:53:32;;;;;;;16.73;11.73;;;;;;;10.77;52.22;95345.56;5127689;27;20476;-86
2024/03/17 07:55:59;;;;;;;13.27;9.77;;;;;;;10.74;52.31;95338.19;5126569;27;20023;-87
2024/03/17 07:58:25;;;;;;;13.20;9.80;;;;;;;10.79;52.09;95343.19;5118096;27;20035;-85
2024/03/17 08:00:52;;;;;;;13.52;9.63;;;;;;;10.85;52.00;95341.47;5136875;27;20109;-86
2024/03/17 08:03:18;;;;;;;13.02;8.85;;;;;;;10.91;51.91;95341.72;5125630;27;20027;-86
2024/03/17 08:05:48;;;;;;;12.90;8.88;;;;;;;10.94;52.06;95338.13;5127137;27;20062;-84
2024/03/17 08:08:13;;;;;;;11.75;8.88;;;;;;;10.99;51.38;95332.09;5125887;27;20061;-86
2024/03/17 08:10:39;;;;;;;13.77;9.68;;;;;;;11.00;51.68;95341.91;5126283;27;20095;-86
2024/03/17 08:13:05;;;;;;;15.10;9.40;;;;;;;11.06;51.56;95336.66;5108631;28;20015;-87
2024/03/17 08:15:30;;;;;;;14.68;9.68;;;;;;;11.14;51.36;95333.31;5108301;28;20043;-86
2024/03/17 08:17:56;;;;;;;15.25;10.65;;;;;;;11.29;50.90;95341.97;5125133;28;20058;-86
2024/03/17 08:20:21;;;;;;;17.00;10.20;;;;;;;11.44;50.78;95334.91;5126694;27;20027;-87
2024/03/17 08:22:47;;;;;;;15.25;10.55;;;;;;;11.58;50.97;95338.50;5125643;27;20023;-86
2024/03/17 08:25:12;;;;;;;16.38;11.68;;;;;;;11.75;50.45;95336.47;5125349;28;20023;-87
2024/03/17 08:27:37;;;;;;;15.52;10.70;;;;;;;11.90;49.94;95329.41;5124553;28;20019;-85
2024/03/17 08:30:03;;;;;;;18.33;10.88;;;;;;;12.16;49.34;95333.78;5107949;28;20131;-87
2024/03/17 08:32:29;;;;;;;16.92;10.52;;;;;;;12.40;48.16;95322.47;5126045;27;20023;-85
2024/03/17 08:34:55;;;;;;;15.45;10.45;;;;;;;12.55;47.58;95317.28;5107985;28;20500;-87
2024/03/17 08:37:20;;;;;;;15.13;10.50;;;;;;;12.69;47.03;95325.13;5126243;27;20111;-85
2024/03/17 08:39:47;;;;;;;14.63;9.68;;;;;;;12.87;47.06;95321.81;5126139;27;20024;-86
2024/03/17 08:42:12;;;;;;;14.38;9.05;;;;;;;13.00;46.38;95317.81;5126474;27;20117;-87
2024/03/17 08:44:37;;;;;;;13.52;9.25;;;;;;;13.17;46.32;95310.19;5125794;27;20088;-86
2024/03/17 08:47:03;;;;;;;15.35;8.52;;;;;;;13.57;45.51;95308.91;5124841;28;20019;-88
2024/03/17 08:49:29;;;;;;;12.65;8.65;;;;;;;13.88;44.56;95307.03;5124954;28;20020;-87
2024/03/17 08:51:54;;;;;;;13.38;9.35;;;;;;;14.14;44.02;95298.59;5124516;28;20027;-87
2024/03/17 08:54:20;;;;;;;14.23;8.75;;;;;;;14.47;43.27;95301.72;5124810;28;20123;-87
2024/03/17 08:56:45;;;;;;;13.75;9.10;;;;;;;14.75;42.28;95302.63;5125120;28;20374;-87
2024/03/17 08:59:12;;;;;;;12.05;8.68;;;;;;;15.17;41.07;95299.38;5125225;28;20019;-88
2024/03/17 09:01:37;;;;;;;14.65;9.05;;;;;;;15.55;40.03;95291.44;5108262;28;20142;-86
2024/03/17 09:04:03;;;;;;;17.40;9.00;;;;;;;15.90;39.76;95294.69;5125897;27;20047;-86
2024/03/17 09:06:29;;;;;;;13.52;8.75;;;;;;;16.26;38.87;95295.88;5125562;27;20092;-86
2024/03/17 09:08:55;;;;;;;14.15;9.25;;;;;;;16.67;38.30;95293.59;5125781;27;20026;-88
2024/03/17 09:11:25;;;;;;;15.05;9.48;;;;;;;16.92;38.31;95270.25;5149739;27;20384;-88
2024/03/17 09:13:50;;;;;;;13.43;7.78;;;;;;;17.39;36.74;95279.84;5133853;27;20031;-89
2024/03/17 09:16:18;;;;;;;12.70;7.72;;;;;;;17.81;35.71;95288.06;5128827;27;20047;-88
2024/03/17 09:18:43;;;;;;;12.18;8.27;;;;;;;18.07;35.18;95281.97;5129500;27;20062;-87
2024/03/17 09:21:10;;;;;;;11.05;8.10;;;;;;;18.16;34.47;95274.28;5129873;27;20441;-89
2024/03/17 09:23:36;;;;;;;11.85;8.05;;;;;;;18.26;34.74;95278.53;5128038;27;20023;-86
2024/03/17 09:26:08;;;;;;;10.60;8.30;;;;;;;18.42;34.71;95270.97;5110875;27;20550;-88
2024/03/17 09:28:34;;;;;;;10.45;7.68;;;;;;;18.68;34.46;95263.56;5128483;27;20443;-88
2024/03/17 09:31:00;;;;;;;12.98;8.45;;;;;;;19.05;33.48;95261.09;5128583;27;20045;-88
2024/03/17 09:33:27;;;;;;;11.25;8.18;;;;;;;19.36;33.11;95262.50;5111313;27;20027;-87
2024/03/17 09:36:03;;;;;;;10.35;6.78;;;;;;;19.75;32.82;95259.47;5129486;27;20141;-87
2024/03/17 09:38:29;;;;;;;10.15;7.30;;;;;;;20.24;32.30;95257.69;5128219;27;20015;-88
2024/03/17 09:40:57;;;;;;;6.78;6.00;;;;;;;20.61;30.77;95257.81;5128081;27;20079;-90
2024/03/17 09:43:24;;;;;;;9.80;7.03;;;;;;;20.85;30.53;95258.25;5128583;27;20152;-89
2024/03/17 09:45:54;;;;;;;9.80;6.55;;;;;;;21.42;29.66;95254.56;5129376;27;20035;-89
2024/03/17 09:48:19;;;;;;;9.60;6.53;;;;;;;21.36;29.35;95262.19;5128510;27;20023;-89
2024/03/17 09:50:51;;;;;;;7.32;6.05;;;;;;;21.21;28.57;95255.94;5129127;27;20030;-88
2024/03/17 09:53:18;;;;;;;7.95;6.65;;;;;;;20.93;29.74;95270.53;5110800;27;20102;-89
2024/03/17 09:55:43;;;;;;;10.13;6.68;;;;;;;20.65;29.78;95261.94;5127909;27;20027;-89
2024/03/17 09:58:15;;;;;;;8.30;6.78;;;;;;;20.31;30.12;95260.06;5128903;27;20457;-89
2024/03/17 10:00:40;;;;;;;8.18;6.03;;;;;;;20.27;29.99;95256.72;5127999;27;20106;-87
2024/03/17 10:03:06;;;;;;;11.10;6.18;;;;;;;20.11;30.67;95261.66;5110348;27;20173;-88
2024/03/17 10:05:32;;;;;;;8.68;6.03;;;;;;;20.12;30.46;95256.81;5127949;27;20027;-87
2024/03/17 10:07:58;;;;;;;8.15;5.63;;;;;;;19.93;30.22;95244.47;5127335;27;20477;-89
2024/03/17 10:10:23;;;;;;;9.68;6.50;;;;;;;19.85;29.96;95256.06;5128061;27;20027;-88
2024/03/17 10:12:53;;;;;;;8.50;5.93;;;;;;;19.66;30.71;95263.16;5128870;27;20060;-88
2024/03/17 10:15:23;;;;;;;9.15;6.45;;;;;;;19.79;30.85;95258.03;5127616;27;20019;-88
2024/03/17 10:17:49;;;;;;;7.20;5.20;;;;;;;20.23;29.55;95261.75;5127451;27;20035;-88
2024/03/17 10:20:21;;;;;;;6.43;5.00;;;;;;;20.30;29.06;95258.53;5129491;27;20087;-89
2024/03/17 10:23:01;;;;;;;7.50;4.78;;;;;;;20.24;28.68;95261.25;5147861;27;20052;-89
2024/03/17 10:25:28;;;;;;;5.78;4.57;;;;;;;20.14;28.74;95262.69;5146195;27;20027;-90
2024/03/17 10:27:54;;;;;;;6.70;4.70;;;;;;;20.10;29.17;95257.31;5112136;27;20488;-89
2024/03/17 10:30:21;;;;;;;6.47;4.95;;;;;;;19.93;28.73;95252.81;5128706;27;20049;-90
2024/03/17 10:32:53;;;;;;;8.63;5.68;;;;;;;19.88;29.27;95252.28;5127769;27;20346;-90
2024/03/17 10:35:31;;;;;;;8.32;5.97;;;;;;;19.92;29.58;95246.50;5129252;27;20122;-90
2024/03/17 10:38:02;;;;;;;9.50;5.90;;;;;;;19.88;29.95;95245.94;5127856;27;20413;-90
2024/03/17 10:40:29;;;;;;;9.02;6.20;;;;;;;19.64;30.39;95254.53;5127866;27;20472;-89
2024/03/17 10:42:55;;;;;;;8.52;6.10;;;;;;;19.85;30.38;95252.50;5128280;27;20114;-89
2024/03/17 10:45:21;;;;;;;11.20;6.50;;;;;;;20.36;29.29;95248.97;5129731;27;20485;-90
2024/03/17 10:47:49;;;;;;;9.73;5.28;;;;;;;20.89;28.45;95252.44;5127185;27;20090;-90
2024/03/17 10:50:20;;;;;;;8.48;5.72;;;;;;;21.24;28.00;95246.56;5127304;27;20076;-91
2024/03/17 10:52:51;;;;;;;8.07;4.97;;;;;;;20.69;28.19;95248.47;5128612;27;20109;-91
2024/03/17 10:55:24;;;;;;;6.47;5.43;;;;;;;20.43;28.84;95240.13;5128364;27;20023;-92
2024/03/17 10:57:53;;;;;;;;;;;;;;;20.34;28.71;95245.88;5127699;27;20057;-90
2024/03/17 11:00:22;;;;;;;7.40;4.40;;;;;;;20.20;28.58;95240.44;5128075;27;19953;-90
2024/03/17 11:02:50;;;;;;;7.40;4.70;;;;;;;20.34;28.57;95234.72;5128027;27;20113;-90
2024/03/17 11:05:22;;;;;;;7.03;4.70;;;;;;;20.50;27.44;95238.19;5109647;27;20038;-90
2024/03/17 11:07:50;;;;;;;6.80;4.40;;;;;;;20.34;27.60;95228.38;5126541;27;20019;-89
2024/03/17 11:10:24;;;;;;;7.80;5.03;;;;;;;20.13;27.28;95216.53;5128730;27;20322;-91
2024/03/17 11:12:56;;;;;;;8.20;5.32;;;;;;;20.07;27.75;95241.59;5127122;27;20027;-90
2024/03/17 11:15:33;;;;;;;7.65;4.68;;;;;;;20.08;27.19;95231.19;5128485;27;21574;-90
2024/03/17 11:18:08;;;;;;;7.85;5.03;;;;;;;21.65;25.48;95212.72;5130555;27;20015;-90
2024/03/17 11:20:34;;;;;;;6.50;4.57;;;;;;;23.58;22.44;95220.13;5128517;27;20069;-92
2024/03/17 11:23:00;;;;;;;5.70;3.40;;;;;;;24.65;20.75;95227.97;5129031;27;20049;-92
2024/03/17 11:25:25;;;;;;;4.82;3.20;;;;;;;26.03;19.81;95217.81;5129113;27;20027;-93